sensor_id;sensor_type;location;lat;lon;timestamp;temperature;humidity
38784;DHT22;24531;45.502;12.238;2023-08-17T00:00:07;28.80;81.50
38784;DHT22;24531;45.502;12.238;2023-08-17T00:02:39;28.80;81.50
38784;DHT22;24531;45.502;12.238;2023-08-17T00:05:04;28.90;81.50
38784;DHT22;24531;45.502;12.238;2023-08-17T00:07:32;28.90;81.50
38784;DHT22;24531;45.502;12.238;2023-08-17T00:09:57;28.90;81.50
38784;DHT22;24531;45.502;12.238;2023-08-17T00:12:23;28.90;81.50
38784;DHT22;24531;45.502;12.238;2023-08-17T00:14:49;28.80;81.40
38784;DHT22;24531;45.502;12.238;2023-08-17T00:17:14;28.80;81.30
38784;DHT22;24531;45.502;12.238;2023-08-17T00:19:40;28.90;81.50
38784;DHT22;24531;45.502;12.238;2023-08-17T00:22:05;28.80;81.30
38784;DHT22;24531;45.502;12.238;2023-08-17T00:24:31;28.70;81.50
38784;DHT22;24531;45.502;12.238;2023-08-17T00:26:57;28.70;81.70
38784;DHT22;24531;45.502;12.238;2023-08-17T00:29:22;28.70;81.80
38784;DHT22;24531;45.502;12.238;2023-08-17T00:31:48;28.70;81.80
38784;DHT22;24531;45.502;12.238;2023-08-17T00:34:13;28.70;81.90
38784;DHT22;24531;45.502;12.238;2023-08-17T00:36:39;28.70;81.90
38784;DHT22;24531;45.502;12.238;2023-08-17T00:39:05;28.70;82.10
38784;DHT22;24531;45.502;12.238;2023-08-17T00:41:30;28.70;82.10
38784;DHT22;24531;45.502;12.238;2023-08-17T00:43:56;28.70;82.20
38784;DHT22;24531;45.502;12.238;2023-08-17T00:46:23;28.70;82.20
38784;DHT22;24531;45.502;12.238;2023-08-17T00:48:49;28.60;82.10
38784;DHT22;24531;45.502;12.238;2023-08-17T00:51:15;28.60;82.10
38784;DHT22;24531;45.502;12.238;2023-08-17T00:53:41;28.70;82.20
38784;DHT22;24531;45.502;12.238;2023-08-17T00:56:07;28.60;82.20
38784;DHT22;24531;45.502;12.238;2023-08-17T00:58:33;28.60;82.20
38784;DHT22;24531;45.502;12.238;2023-08-17T01:00:59;28.60;82.40
38784;DHT22;24531;45.502;12.238;2023-08-17T01:03:28;28.60;82.60
38784;DHT22;24531;45.502;12.238;2023-08-17T01:05:57;28.60;82.70
38784;DHT22;24531;45.502;12.238;2023-08-17T01:08:23;28.60;82.70
38784;DHT22;24531;45.502;12.238;2023-08-17T01:16:50;28.60;83.20
38784;DHT22;24531;45.502;12.238;2023-08-17T01:19:25;28.40;83.30
38784;DHT22;24531;45.502;12.238;2023-08-17T01:21:57;28.40;83.60
38784;DHT22;24531;45.502;12.238;2023-08-17T01:24:25;28.30;83.70
38784;DHT22;24531;45.502;12.238;2023-08-17T01:26:52;28.30;84.00
38784;DHT22;24531;45.502;12.238;2023-08-17T01:29:18;28.20;84.10
38784;DHT22;24531;45.502;12.238;2023-08-17T01:34:35;28.20;84.80
38784;DHT22;24531;45.502;12.238;2023-08-17T01:37:04;28.10;85.50
38784;DHT22;24531;45.502;12.238;2023-08-17T01:39:37;28.10;84.80
38784;DHT22;24531;45.502;12.238;2023-08-17T01:42:03;28.00;85.00
38784;DHT22;24531;45.502;12.238;2023-08-17T01:44:30;28.10;85.20
38784;DHT22;24531;45.502;12.238;2023-08-17T01:46:56;28.10;85.40
38784;DHT22;24531;45.502;12.238;2023-08-17T01:49:22;28.00;85.30
38784;DHT22;24531;45.502;12.238;2023-08-17T01:51:47;28.00;85.30
38784;DHT22;24531;45.502;12.238;2023-08-17T01:54:13;28.10;85.50
38784;DHT22;24531;45.502;12.238;2023-08-17T01:56:38;28.00;85.50
38784;DHT22;24531;45.502;12.238;2023-08-17T01:59:04;28.00;85.60
38784;DHT22;24531;45.502;12.238;2023-08-17T02:01:29;27.90;85.60
38784;DHT22;24531;45.502;12.238;2023-08-17T02:03:55;28.00;85.80
38784;DHT22;24531;45.502;12.238;2023-08-17T02:06:21;28.00;85.80
38784;DHT22;24531;45.502;12.238;2023-08-17T02:08:46;28.00;85.80
38784;DHT22;24531;45.502;12.238;2023-08-17T02:11:12;28.00;85.90
38784;DHT22;24531;45.502;12.238;2023-08-17T02:13:37;28.00;85.90
38784;DHT22;24531;45.502;12.238;2023-08-17T02:16:04;28.00;85.90
38784;DHT22;24531;45.502;12.238;2023-08-17T02:18:30;28.00;86.00
38784;DHT22;24531;45.502;12.238;2023-08-17T02:20:57;27.90;86.00
38784;DHT22;24531;45.502;12.238;2023-08-17T02:23:23;27.90;86.20
38784;DHT22;24531;45.502;12.238;2023-08-17T02:25:48;27.90;86.30
38784;DHT22;24531;45.502;12.238;2023-08-17T02:28:14;27.80;86.50
38784;DHT22;24531;45.502;12.238;2023-08-17T02:30:40;27.80;86.70
38784;DHT22;24531;45.502;12.238;2023-08-17T02:33:05;27.80;86.80
38784;DHT22;24531;45.502;12.238;2023-08-17T02:35:31;27.80;87.10
38784;DHT22;24531;45.502;12.238;2023-08-17T02:37:56;27.80;87.20
38784;DHT22;24531;45.502;12.238;2023-08-17T02:40:22;27.70;87.20
38784;DHT22;24531;45.502;12.238;2023-08-17T02:42:48;27.70;87.20
38784;DHT22;24531;45.502;12.238;2023-08-17T02:45:13;27.70;87.30
38784;DHT22;24531;45.502;12.238;2023-08-17T02:47:39;27.70;87.60
38784;DHT22;24531;45.502;12.238;2023-08-17T02:50:05;27.60;87.60
38784;DHT22;24531;45.502;12.238;2023-08-17T02:52:31;27.60;88.50
38784;DHT22;24531;45.502;12.238;2023-08-17T02:54:56;27.60;87.80
38784;DHT22;24531;45.502;12.238;2023-08-17T02:57:22;27.60;87.80
38784;DHT22;24531;45.502;12.238;2023-08-17T02:59:48;27.60;87.80
38784;DHT22;24531;45.502;12.238;2023-08-17T03:02:13;27.60;87.80
38784;DHT22;24531;45.502;12.238;2023-08-17T03:04:39;27.70;87.90
38784;DHT22;24531;45.502;12.238;2023-08-17T03:07:05;27.70;87.90
38784;DHT22;24531;45.502;12.238;2023-08-17T03:09:30;27.70;87.90
38784;DHT22;24531;45.502;12.238;2023-08-17T03:11:56;27.70;87.90
38784;DHT22;24531;45.502;12.238;2023-08-17T03:14:22;27.60;87.90
38784;DHT22;24531;45.502;12.238;2023-08-17T03:16:47;27.60;88.10
38784;DHT22;24531;45.502;12.238;2023-08-17T03:19:13;27.50;88.20
38784;DHT22;24531;45.502;12.238;2023-08-17T03:21:38;27.50;88.40
38784;DHT22;24531;45.502;12.238;2023-08-17T03:24:04;27.40;88.50
38784;DHT22;24531;45.502;12.238;2023-08-17T03:26:30;27.40;88.60
38784;DHT22;24531;45.502;12.238;2023-08-17T03:28:56;27.40;88.90
38784;DHT22;24531;45.502;12.238;2023-08-17T03:31:21;27.30;89.10
38784;DHT22;24531;45.502;12.238;2023-08-17T03:33:48;27.30;89.10
38784;DHT22;24531;45.502;12.238;2023-08-17T03:36:13;27.30;89.30
38784;DHT22;24531;45.502;12.238;2023-08-17T03:38:39;27.30;89.30
38784;DHT22;24531;45.502;12.238;2023-08-17T03:41:05;27.30;89.40
38784;DHT22;24531;45.502;12.238;2023-08-17T03:43:31;27.30;89.60
38784;DHT22;24531;45.502;12.238;2023-08-17T03:45:57;27.30;89.50
38784;DHT22;24531;45.502;12.238;2023-08-17T03:48:23;27.20;89.70
38784;DHT22;24531;45.502;12.238;2023-08-17T03:50:53;27.20;89.90
38784;DHT22;24531;45.502;12.238;2023-08-17T03:53:19;27.20;90.00
38784;DHT22;24531;45.502;12.238;2023-08-17T03:55:49;27.20;90.00
38784;DHT22;24531;45.502;12.238;2023-08-17T03:58:18;27.20;90.00
38784;DHT22;24531;45.502;12.238;2023-08-17T04:00:50;27.20;90.40
38784;DHT22;24531;45.502;12.238;2023-08-17T04:03:17;27.20;90.10
38784;DHT22;24531;45.502;12.238;2023-08-17T04:05:42;27.10;90.10
38784;DHT22;24531;45.502;12.238;2023-08-17T04:08:08;27.10;90.20
38784;DHT22;24531;45.502;12.238;2023-08-17T04:10:34;27.00;90.30
38784;DHT22;24531;45.502;12.238;2023-08-17T04:12:59;27.10;90.70
38784;DHT22;24531;45.502;12.238;2023-08-17T04:15:25;27.00;90.40
38784;DHT22;24531;45.502;12.238;2023-08-17T04:17:50;27.00;90.40
38784;DHT22;24531;45.502;12.238;2023-08-17T04:20:16;27.00;90.40
38784;DHT22;24531;45.502;12.238;2023-08-17T04:22:43;27.00;90.40
38784;DHT22;24531;45.502;12.238;2023-08-17T04:25:09;27.00;90.50
38784;DHT22;24531;45.502;12.238;2023-08-17T04:27:35;27.00;90.60
38784;DHT22;24531;45.502;12.238;2023-08-17T04:30:01;27.00;90.60
38784;DHT22;24531;45.502;12.238;2023-08-17T04:32:27;27.00;90.60
38784;DHT22;24531;45.502;12.238;2023-08-17T04:34:52;27.00;90.70
38784;DHT22;24531;45.502;12.238;2023-08-17T04:37:18;26.90;90.70
38784;DHT22;24531;45.502;12.238;2023-08-17T04:39:43;26.90;90.80
38784;DHT22;24531;45.502;12.238;2023-08-17T04:42:10;26.80;90.90
38784;DHT22;24531;45.502;12.238;2023-08-17T04:44:36;26.80;90.90
38784;DHT22;24531;45.502;12.238;2023-08-17T04:47:01;26.80;91.00
38784;DHT22;24531;45.502;12.238;2023-08-17T04:49:27;26.80;91.10
38784;DHT22;24531;45.502;12.238;2023-08-17T04:51:53;26.80;91.20
38784;DHT22;24531;45.502;12.238;2023-08-17T04:54:18;26.80;91.20
38784;DHT22;24531;45.502;12.238;2023-08-17T04:56:44;26.80;91.20
38784;DHT22;24531;45.502;12.238;2023-08-17T04:59:10;26.80;91.20
38784;DHT22;24531;45.502;12.238;2023-08-17T05:01:35;26.90;91.60
38784;DHT22;24531;45.502;12.238;2023-08-17T05:04:02;26.90;91.30
38784;DHT22;24531;45.502;12.238;2023-08-17T05:06:28;26.90;91.50
38784;DHT22;24531;45.502;12.238;2023-08-17T05:08:54;26.90;91.80
38784;DHT22;24531;45.502;12.238;2023-08-17T05:11:20;27.00;91.50
38784;DHT22;24531;45.502;12.238;2023-08-17T05:13:45;26.90;91.50
38784;DHT22;24531;45.502;12.238;2023-08-17T05:16:11;27.00;91.60
38784;DHT22;24531;45.502;12.238;2023-08-17T05:18:36;27.00;91.50
38784;DHT22;24531;45.502;12.238;2023-08-17T05:21:02;27.00;91.50
38784;DHT22;24531;45.502;12.238;2023-08-17T05:23:31;27.00;91.60
38784;DHT22;24531;45.502;12.238;2023-08-17T05:25:57;27.00;91.60
38784;DHT22;24531;45.502;12.238;2023-08-17T05:28:22;27.00;91.60
38784;DHT22;24531;45.502;12.238;2023-08-17T05:30:49;27.10;91.70
38784;DHT22;24531;45.502;12.238;2023-08-17T05:33:18;27.10;91.70
38784;DHT22;24531;45.502;12.238;2023-08-17T05:35:44;27.20;91.70
38784;DHT22;24531;45.502;12.238;2023-08-17T05:38:10;27.20;91.60
38784;DHT22;24531;45.502;12.238;2023-08-17T05:40:35;27.30;91.60
38784;DHT22;24531;45.502;12.238;2023-08-17T05:43:03;27.30;91.60
38784;DHT22;24531;45.502;12.238;2023-08-17T05:45:29;27.40;91.60
38784;DHT22;24531;45.502;12.238;2023-08-17T05:47:55;27.40;91.70
38784;DHT22;24531;45.502;12.238;2023-08-17T05:50:20;27.40;92.00
38784;DHT22;24531;45.502;12.238;2023-08-17T05:52:46;27.40;91.70
38784;DHT22;24531;45.502;12.238;2023-08-17T05:55:11;27.50;91.70
38784;DHT22;24531;45.502;12.238;2023-08-17T05:57:37;27.60;91.70
38784;DHT22;24531;45.502;12.238;2023-08-17T06:00:03;27.60;91.50
38784;DHT22;24531;45.502;12.238;2023-08-17T06:02:29;27.70;91.50
38784;DHT22;24531;45.502;12.238;2023-08-17T06:04:55;27.80;91.40
38784;DHT22;24531;45.502;12.238;2023-08-17T06:07:20;27.80;91.60
38784;DHT22;24531;45.502;12.238;2023-08-17T06:09:46;27.90;91.30
38784;DHT22;24531;45.502;12.238;2023-08-17T06:12:11;27.90;91.20
38784;DHT22;24531;45.502;12.238;2023-08-17T06:14:37;28.10;91.10
38784;DHT22;24531;45.502;12.238;2023-08-17T06:17:03;28.10;90.90
38784;DHT22;24531;45.502;12.238;2023-08-17T06:19:28;28.10;90.70
38784;DHT22;24531;45.502;12.238;2023-08-17T06:21:54;28.30;90.60
38784;DHT22;24531;45.502;12.238;2023-08-17T06:24:19;28.30;90.30
38784;DHT22;24531;45.502;12.238;2023-08-17T06:26:45;28.50;90.30
38784;DHT22;24531;45.502;12.238;2023-08-17T06:29:11;28.50;90.10
38784;DHT22;24531;45.502;12.238;2023-08-17T06:31:37;28.60;90.00
38784;DHT22;24531;45.502;12.238;2023-08-17T06:34:03;28.80;90.00
38784;DHT22;24531;45.502;12.238;2023-08-17T06:36:32;29.00;90.00
38784;DHT22;24531;45.502;12.238;2023-08-17T06:38:58;29.30;89.50
38784;DHT22;24531;45.502;12.238;2023-08-17T06:41:24;29.50;88.60
38784;DHT22;24531;45.502;12.238;2023-08-17T06:43:50;29.40;88.30
38784;DHT22;24531;45.502;12.238;2023-08-17T06:46:16;29.50;88.70
38784;DHT22;24531;45.502;12.238;2023-08-17T06:48:43;29.50;88.60
38784;DHT22;24531;45.502;12.238;2023-08-17T06:51:08;29.60;88.30
38784;DHT22;24531;45.502;12.238;2023-08-17T06:53:34;29.80;87.80
38784;DHT22;24531;45.502;12.238;2023-08-17T06:55:59;29.80;87.40
38784;DHT22;24531;45.502;12.238;2023-08-17T06:58:25;29.90;87.30
38784;DHT22;24531;45.502;12.238;2023-08-17T07:00:51;29.90;86.80
38784;DHT22;24531;45.502;12.238;2023-08-17T07:03:20;29.90;86.50
38784;DHT22;24531;45.502;12.238;2023-08-17T07:05:46;30.10;86.70
38784;DHT22;24531;45.502;12.238;2023-08-17T07:08:11;30.20;86.50
38784;DHT22;24531;45.502;12.238;2023-08-17T07:10:38;30.30;86.00
38784;DHT22;24531;45.502;12.238;2023-08-17T07:13:04;30.30;85.80
38784;DHT22;24531;45.502;12.238;2023-08-17T07:15:31;30.40;85.90
38784;DHT22;24531;45.502;12.238;2023-08-17T07:17:56;30.50;85.70
38784;DHT22;24531;45.502;12.238;2023-08-17T07:20:22;30.80;85.20
38784;DHT22;24531;45.502;12.238;2023-08-17T07:22:48;30.80;84.60
38784;DHT22;24531;45.502;12.238;2023-08-17T07:25:13;30.90;84.30
38784;DHT22;24531;45.502;12.238;2023-08-17T07:27:40;31.00;84.10
38784;DHT22;24531;45.502;12.238;2023-08-17T07:30:06;31.10;83.70
38784;DHT22;24531;45.502;12.238;2023-08-17T07:32:32;31.30;83.50
38784;DHT22;24531;45.502;12.238;2023-08-17T07:34:58;31.40;83.30
38784;DHT22;24531;45.502;12.238;2023-08-17T07:37:24;31.60;82.80
38784;DHT22;24531;45.502;12.238;2023-08-17T07:39:56;31.70;82.30
38784;DHT22;24531;45.502;12.238;2023-08-17T07:42:22;31.90;82.30
38784;DHT22;24531;45.502;12.238;2023-08-17T07:44:47;32.10;82.00
38784;DHT22;24531;45.502;12.238;2023-08-17T07:47:13;32.20;81.70
38784;DHT22;24531;45.502;12.238;2023-08-17T07:49:38;32.40;81.30
38784;DHT22;24531;45.502;12.238;2023-08-17T07:52:04;32.60;80.70
38784;DHT22;24531;45.502;12.238;2023-08-17T07:54:30;32.80;80.00
38784;DHT22;24531;45.502;12.238;2023-08-17T07:56:55;32.90;79.30
38784;DHT22;24531;45.502;12.238;2023-08-17T07:59:21;33.00;78.90
38784;DHT22;24531;45.502;12.238;2023-08-17T08:01:47;33.20;78.20
38784;DHT22;24531;45.502;12.238;2023-08-17T08:04:12;33.50;77.50
38784;DHT22;24531;45.502;12.238;2023-08-17T08:06:38;33.70;77.20
38784;DHT22;24531;45.502;12.238;2023-08-17T08:09:03;34.10;76.90
38784;DHT22;24531;45.502;12.238;2023-08-17T08:11:29;34.20;75.70
38784;DHT22;24531;45.502;12.238;2023-08-17T08:13:56;34.00;75.20
38784;DHT22;24531;45.502;12.238;2023-08-17T08:16:22;33.80;75.50
38784;DHT22;24531;45.502;12.238;2023-08-17T08:18:48;33.50;75.80
38784;DHT22;24531;45.502;12.238;2023-08-17T08:21:13;33.20;75.80
38784;DHT22;24531;45.502;12.238;2023-08-17T08:23:39;32.90;76.00
38784;DHT22;24531;45.502;12.238;2023-08-17T08:26:04;32.80;76.20
38784;DHT22;24531;45.502;12.238;2023-08-17T08:28:30;32.90;76.70
38784;DHT22;24531;45.502;12.238;2023-08-17T08:31:01;33.50;76.30
38784;DHT22;24531;45.502;12.238;2023-08-17T08:33:28;34.30;75.50
38784;DHT22;24531;45.502;12.238;2023-08-17T08:35:53;35.40;74.20
38784;DHT22;24531;45.502;12.238;2023-08-17T08:38:19;36.50;72.20
38784;DHT22;24531;45.502;12.238;2023-08-17T08:40:47;37.40;71.20
38784;DHT22;24531;45.502;12.238;2023-08-17T08:43:13;38.10;69.20
38784;DHT22;24531;45.502;12.238;2023-08-17T08:45:41;38.80;67.70
38784;DHT22;24531;45.502;12.238;2023-08-17T08:48:08;39.40;66.30
38784;DHT22;24531;45.502;12.238;2023-08-17T08:50:36;39.90;64.30
38784;DHT22;24531;45.502;12.238;2023-08-17T08:53:03;39.60;63.20
38784;DHT22;24531;45.502;12.238;2023-08-17T08:55:37;39.30;62.70
38784;DHT22;24531;45.502;12.238;2023-08-17T08:58:04;38.90;63.00
38784;DHT22;24531;45.502;12.238;2023-08-17T09:00:32;38.60;63.80
38784;DHT22;24531;45.502;12.238;2023-08-17T09:02:59;38.90;64.10
38784;DHT22;24531;45.502;12.238;2023-08-17T09:05:27;39.60;63.20
38784;DHT22;24531;45.502;12.238;2023-08-17T09:07:53;40.30;62.00
38784;DHT22;24531;45.502;12.238;2023-08-17T09:10:20;41.00;61.30
38784;DHT22;24531;45.502;12.238;2023-08-17T09:12:49;41.50;60.00
38784;DHT22;24531;45.502;12.238;2023-08-17T09:15:15;41.90;59.10
38784;DHT22;24531;45.502;12.238;2023-08-17T09:17:40;42.20;58.60
38784;DHT22;24531;45.502;12.238;2023-08-17T09:20:07;42.40;57.80
38784;DHT22;24531;45.502;12.238;2023-08-17T09:22:46;42.50;57.00
38784;DHT22;24531;45.502;12.238;2023-08-17T09:25:22;42.70;56.20
38784;DHT22;24531;45.502;12.238;2023-08-17T09:27:48;43.00;55.80
38784;DHT22;24531;45.502;12.238;2023-08-17T09:30:14;43.10;55.90
38784;DHT22;24531;45.502;12.238;2023-08-17T09:32:41;43.30;55.50
38784;DHT22;24531;45.502;12.238;2023-08-17T09:35:07;43.60;55.00
38784;DHT22;24531;45.502;12.238;2023-08-17T09:37:33;43.80;54.50
38784;DHT22;24531;45.502;12.238;2023-08-17T09:39:59;44.00;54.00
38784;DHT22;24531;45.502;12.238;2023-08-17T09:42:25;44.00;54.10
38784;DHT22;24531;45.502;12.238;2023-08-17T09:44:52;44.00;52.90
38784;DHT22;24531;45.502;12.238;2023-08-17T09:47:19;44.00;53.70
38784;DHT22;24531;45.502;12.238;2023-08-17T09:49:51;44.30;52.40
38784;DHT22;24531;45.502;12.238;2023-08-17T09:52:21;44.40;51.20
38784;DHT22;24531;45.502;12.238;2023-08-17T09:54:47;44.20;51.00
38784;DHT22;24531;45.502;12.238;2023-08-17T09:57:14;44.40;51.10
38784;DHT22;24531;45.502;12.238;2023-08-17T09:59:40;44.60;50.50
38784;DHT22;24531;45.502;12.238;2023-08-17T10:02:18;44.80;50.50
38784;DHT22;24531;45.502;12.238;2023-08-17T10:04:50;45.10;49.60
38784;DHT22;24531;45.502;12.238;2023-08-17T10:07:19;45.20;49.10
38784;DHT22;24531;45.502;12.238;2023-08-17T10:09:50;45.10;49.30
38784;DHT22;24531;45.502;12.238;2023-08-17T10:12:19;45.20;49.60
38784;DHT22;24531;45.502;12.238;2023-08-17T10:14:49;44.90;49.40
38784;DHT22;24531;45.502;12.238;2023-08-17T10:17:25;44.30;49.60
38784;DHT22;24531;45.502;12.238;2023-08-17T10:19:54;43.50;50.00
38784;DHT22;24531;45.502;12.238;2023-08-17T10:25:05;41.30;52.60
38784;DHT22;24531;45.502;12.238;2023-08-17T10:27:34;40.40;53.60
38784;DHT22;24531;45.502;12.238;2023-08-17T10:30:01;39.90;54.40
38784;DHT22;24531;45.502;12.238;2023-08-17T10:32:28;39.60;55.00
38784;DHT22;24531;45.502;12.238;2023-08-17T10:34:54;39.40;55.30
38784;DHT22;24531;45.502;12.238;2023-08-17T10:37:21;39.10;55.50
38784;DHT22;24531;45.502;12.238;2023-08-17T10:39:49;38.80;55.20
38784;DHT22;24531;45.502;12.238;2023-08-17T10:42:15;38.60;56.00
38784;DHT22;24531;45.502;12.238;2023-08-17T10:44:54;38.50;56.40
38784;DHT22;24531;45.502;12.238;2023-08-17T10:47:25;38.40;56.60
38784;DHT22;24531;45.502;12.238;2023-08-17T10:50:23;38.30;56.80
38784;DHT22;24531;45.502;12.238;2023-08-17T10:52:50;38.20;56.90
38784;DHT22;24531;45.502;12.238;2023-08-17T10:55:16;38.10;57.20
38784;DHT22;24531;45.502;12.238;2023-08-17T10:57:43;38.10;56.90
38784;DHT22;24531;45.502;12.238;2023-08-17T11:02:39;38.00;57.60
38784;DHT22;24531;45.502;12.238;2023-08-17T11:05:06;38.00;58.00
38784;DHT22;24531;45.502;12.238;2023-08-17T11:07:44;37.80;57.50
38784;DHT22;24531;45.502;12.238;2023-08-17T11:12:45;37.50;57.20
38784;DHT22;24531;45.502;12.238;2023-08-17T11:15:11;37.30;57.80
38784;DHT22;24531;45.502;12.238;2023-08-17T11:17:37;37.30;58.10
38784;DHT22;24531;45.502;12.238;2023-08-17T11:20:06;37.30;58.30
38784;DHT22;24531;45.502;12.238;2023-08-17T11:22:34;37.10;58.20
38784;DHT22;24531;45.502;12.238;2023-08-17T11:25:00;37.10;58.30
38784;DHT22;24531;45.502;12.238;2023-08-17T11:27:26;37.00;58.20
38784;DHT22;24531;45.502;12.238;2023-08-17T11:29:55;37.00;58.60
38784;DHT22;24531;45.502;12.238;2023-08-17T11:32:21;37.00;59.00
38784;DHT22;24531;45.502;12.238;2023-08-17T11:34:46;37.00;58.90
38784;DHT22;24531;45.502;12.238;2023-08-17T11:37:12;37.00;58.70
38784;DHT22;24531;45.502;12.238;2023-08-17T11:39:37;37.00;58.60
38784;DHT22;24531;45.502;12.238;2023-08-17T11:42:04;37.00;58.70
38784;DHT22;24531;45.502;12.238;2023-08-17T11:44:30;37.00;59.00
38784;DHT22;24531;45.502;12.238;2023-08-17T11:46:55;36.90;58.80
38784;DHT22;24531;45.502;12.238;2023-08-17T11:49:21;36.90;59.10
38784;DHT22;24531;45.502;12.238;2023-08-17T11:51:50;36.90;59.10
38784;DHT22;24531;45.502;12.238;2023-08-17T11:54:16;36.80;59.30
38784;DHT22;24531;45.502;12.238;2023-08-17T11:56:42;36.90;59.40
38784;DHT22;24531;45.502;12.238;2023-08-17T11:59:10;37.00;60.20
38784;DHT22;24531;45.502;12.238;2023-08-17T12:01:39;37.00;59.10
38784;DHT22;24531;45.502;12.238;2023-08-17T12:04:06;37.00;59.80
38784;DHT22;24531;45.502;12.238;2023-08-17T12:06:32;37.00;60.30
38784;DHT22;24531;45.502;12.238;2023-08-17T12:08:58;37.10;59.40
38784;DHT22;24531;45.502;12.238;2023-08-17T12:11:26;37.10;59.00
38784;DHT22;24531;45.502;12.238;2023-08-17T12:13:52;37.00;59.20
38784;DHT22;24531;45.502;12.238;2023-08-17T12:16:19;37.10;59.10
38784;DHT22;24531;45.502;12.238;2023-08-17T12:18:52;37.00;58.80
38784;DHT22;24531;45.502;12.238;2023-08-17T12:21:22;37.00;58.80
38784;DHT22;24531;45.502;12.238;2023-08-17T12:23:47;36.90;58.50
38784;DHT22;24531;45.502;12.238;2023-08-17T12:26:21;36.90;58.50
38784;DHT22;24531;45.502;12.238;2023-08-17T12:28:46;36.90;58.40
38784;DHT22;24531;45.502;12.238;2023-08-17T12:31:12;36.90;58.30
38784;DHT22;24531;45.502;12.238;2023-08-17T12:33:38;36.90;58.30
38784;DHT22;24531;45.502;12.238;2023-08-17T12:36:03;36.80;58.30
38784;DHT22;24531;45.502;12.238;2023-08-17T12:38:29;36.80;58.60
38784;DHT22;24531;45.502;12.238;2023-08-17T12:40:55;36.90;59.00
38784;DHT22;24531;45.502;12.238;2023-08-17T12:43:21;36.90;58.60
38784;DHT22;24531;45.502;12.238;2023-08-17T12:45:46;36.90;58.40
38784;DHT22;24531;45.502;12.238;2023-08-17T12:48:12;36.80;58.50
38784;DHT22;24531;45.502;12.238;2023-08-17T12:50:38;36.90;58.50
38784;DHT22;24531;45.502;12.238;2023-08-17T12:53:03;37.00;58.70
38784;DHT22;24531;45.502;12.238;2023-08-17T12:55:29;37.00;58.60
38784;DHT22;24531;45.502;12.238;2023-08-17T12:57:55;36.90;58.40
38784;DHT22;24531;45.502;12.238;2023-08-17T13:00:20;36.80;58.20
38784;DHT22;24531;45.502;12.238;2023-08-17T13:02:46;36.70;58.80
38784;DHT22;24531;45.502;12.238;2023-08-17T13:05:14;36.80;58.70
38784;DHT22;24531;45.502;12.238;2023-08-17T13:07:40;36.80;58.60
38784;DHT22;24531;45.502;12.238;2023-08-17T13:10:06;36.80;58.30
38784;DHT22;24531;45.502;12.238;2023-08-17T13:12:31;36.80;58.30
38784;DHT22;24531;45.502;12.238;2023-08-17T13:14:57;36.80;58.60
38784;DHT22;24531;45.502;12.238;2023-08-17T13:17:22;36.80;58.70
38784;DHT22;24531;45.502;12.238;2023-08-17T13:19:48;36.80;58.40
38784;DHT22;24531;45.502;12.238;2023-08-17T13:22:14;36.70;58.30
38784;DHT22;24531;45.502;12.238;2023-08-17T13:24:39;36.60;58.50
38784;DHT22;24531;45.502;12.238;2023-08-17T13:27:05;36.70;58.70
38784;DHT22;24531;45.502;12.238;2023-08-17T13:29:31;36.70;58.60
38784;DHT22;24531;45.502;12.238;2023-08-17T13:31:56;36.70;58.60
38784;DHT22;24531;45.502;12.238;2023-08-17T13:34:22;36.70;58.70
38784;DHT22;24531;45.502;12.238;2023-08-17T13:36:47;36.70;58.70
38784;DHT22;24531;45.502;12.238;2023-08-17T13:39:13;36.70;58.70
38784;DHT22;24531;45.502;12.238;2023-08-17T13:41:40;36.70;58.80
38784;DHT22;24531;45.502;12.238;2023-08-17T13:44:06;36.80;58.70
38784;DHT22;24531;45.502;12.238;2023-08-17T13:46:32;36.80;58.60
38784;DHT22;24531;45.502;12.238;2023-08-17T13:48:58;36.70;58.60
38784;DHT22;24531;45.502;12.238;2023-08-17T13:51:24;36.70;58.50
38784;DHT22;24531;45.502;12.238;2023-08-17T13:53:50;36.70;58.70
38784;DHT22;24531;45.502;12.238;2023-08-17T13:56:16;36.70;58.50
38784;DHT22;24531;45.502;12.238;2023-08-17T13:58:42;36.40;58.70
38784;DHT22;24531;45.502;12.238;2023-08-17T14:01:07;36.10;59.20
38784;DHT22;24531;45.502;12.238;2023-08-17T14:03:33;35.70;59.70
38784;DHT22;24531;45.502;12.238;2023-08-17T14:05:58;35.50;59.90
38784;DHT22;24531;45.502;12.238;2023-08-17T14:08:24;35.20;60.40
38784;DHT22;24531;45.502;12.238;2023-08-17T14:10:50;35.00;61.00
38784;DHT22;24531;45.502;12.238;2023-08-17T14:13:15;34.90;61.30
38784;DHT22;24531;45.502;12.238;2023-08-17T14:15:41;34.80;61.50
38784;DHT22;24531;45.502;12.238;2023-08-17T14:18:07;34.70;62.00
38784;DHT22;24531;45.502;12.238;2023-08-17T14:20:32;34.60;62.50
38784;DHT22;24531;45.502;12.238;2023-08-17T14:22:58;34.60;62.90
38784;DHT22;24531;45.502;12.238;2023-08-17T14:25:23;34.60;63.10
38784;DHT22;24531;45.502;12.238;2023-08-17T14:27:49;34.70;63.10
38784;DHT22;24531;45.502;12.238;2023-08-17T14:30:15;34.90;62.80
38784;DHT22;24531;45.502;12.238;2023-08-17T14:32:40;35.30;62.00
38784;DHT22;24531;45.502;12.238;2023-08-17T14:35:06;35.60;61.40
38784;DHT22;24531;45.502;12.238;2023-08-17T14:37:32;35.70;60.80
38784;DHT22;24531;45.502;12.238;2023-08-17T14:39:58;35.80;60.50
38784;DHT22;24531;45.502;12.238;2023-08-17T14:42:23;36.00;60.60
38784;DHT22;24531;45.502;12.238;2023-08-17T14:44:49;36.00;59.40
38784;DHT22;24531;45.502;12.238;2023-08-17T14:47:15;36.00;59.20
38784;DHT22;24531;45.502;12.238;2023-08-17T14:49:43;36.00;59.20
38784;DHT22;24531;45.502;12.238;2023-08-17T14:52:09;36.20;59.30
38784;DHT22;24531;45.502;12.238;2023-08-17T14:54:34;36.30;59.00
38784;DHT22;24531;45.502;12.238;2023-08-17T14:57:00;36.40;58.80
38784;DHT22;24531;45.502;12.238;2023-08-17T14:59:27;36.30;58.60
38784;DHT22;24531;45.502;12.238;2023-08-17T15:01:52;36.40;58.50
38784;DHT22;24531;45.502;12.238;2023-08-17T15:04:21;36.30;58.10
38784;DHT22;24531;45.502;12.238;2023-08-17T15:06:46;36.20;58.10
38784;DHT22;24531;45.502;12.238;2023-08-17T15:09:12;36.30;58.30
38784;DHT22;24531;45.502;12.238;2023-08-17T15:11:37;36.40;58.10
38784;DHT22;24531;45.502;12.238;2023-08-17T15:14:03;36.40;57.70
38784;DHT22;24531;45.502;12.238;2023-08-17T15:16:29;36.30;57.80
38784;DHT22;24531;45.502;12.238;2023-08-17T15:18:55;36.30;57.70
38784;DHT22;24531;45.502;12.238;2023-08-17T15:21:21;36.30;57.70
38784;DHT22;24531;45.502;12.238;2023-08-17T15:23:47;36.30;57.40
38784;DHT22;24531;45.502;12.238;2023-08-17T15:26:13;36.20;57.20